Bom Jardim, Brazil
Current Conditions -  °F | °C
As of 3:00 PM on Wednesday 26 Nov 2014 (Local Time) from SBTE Reporting Station
Scattered Clouds Scattered Clouds  
Wind Chill: 97°   Ceiling: Unl
Heat Index: 99°   Visibility: 6mi
Dew Point: 64°   Wind: 6mph
Humidity: 34%   Direction: 190°S
Pressure: 29.71"   Gusts: NA
Location:  4.74°S, 44.35°W
Report Text: SBTE 261800Z 19005KT 9999 SCT030 36/18 Q1006
Loading
Personal Weather Stations






























Interactive Weather Map New forecast layout! Learn more

10-Day Weather Forecast

Advertisements
Track Severe Weather on mobile